createdAt,value
2024-05-09T00:01:57.379Z,13.40
2024-05-09T00:06:59.245Z,13.31
2024-05-09T00:12:03.886Z,13.17
2024-05-09T00:17:05.962Z,13.15
2024-05-09T00:22:10.043Z,13.09
2024-05-09T00:27:15.047Z,13.10
2024-05-09T00:32:21.672Z,13.09
2024-05-09T00:37:23.638Z,13.17
2024-05-09T00:42:27.570Z,13.20
2024-05-09T00:47:29.557Z,13.21
2024-05-09T00:52:34.420Z,13.23
2024-05-09T00:57:39.864Z,13.20
2024-05-09T01:02:41.921Z,13.08
2024-05-09T01:07:44.994Z,12.96
2024-05-09T01:12:46.931Z,12.85
2024-05-09T01:17:51.297Z,12.73
2024-05-09T01:22:54.207Z,12.62
2024-05-09T01:27:56.083Z,12.55
2024-05-09T01:33:01.354Z,12.49
2024-05-09T01:38:05.920Z,12.45
2024-05-09T01:43:12.039Z,12.41
2024-05-09T01:48:14.286Z,12.39
2024-05-09T01:53:16.321Z,12.32
2024-05-09T01:58:18.271Z,12.27
2024-05-09T02:03:21.484Z,12.24
2024-05-09T02:08:23.465Z,12.22
2024-05-09T02:13:25.370Z,12.16
2024-05-09T02:18:29.546Z,12.13
2024-05-09T02:23:34.504Z,12.06
2024-05-09T02:28:36.488Z,11.96
2024-05-09T02:33:42.739Z,11.82
2024-05-09T02:38:44.989Z,11.71
2024-05-09T02:43:46.925Z,11.60
2024-05-09T02:48:49.036Z,11.49
2024-05-09T02:53:53.472Z,11.39
2024-05-09T02:58:57.589Z,11.31
2024-05-09T03:04:01.762Z,11.22
2024-05-09T03:09:09.681Z,11.14
2024-05-09T03:14:17.320Z,11.03
2024-05-09T03:19:22.081Z,10.94
2024-05-09T03:24:26.802Z,10.89
2024-05-09T03:29:31.354Z,10.80
2024-05-09T03:34:33.705Z,10.72
2024-05-09T03:39:36.084Z,10.65
2024-05-09T03:44:38.769Z,10.58
2024-05-09T03:49:41.096Z,10.53
2024-05-09T03:54:48.880Z,10.43
2024-05-09T03:59:53.173Z,10.42
2024-05-09T04:04:57.618Z,10.35
2024-05-09T04:09:59.690Z,10.36
2024-05-09T04:15:04.372Z,10.32
2024-05-09T04:20:10.568Z,10.31
2024-05-09T04:25:12.869Z,10.29
2024-05-09T04:30:25.776Z,10.29
2024-05-09T04:35:38.253Z,10.25
2024-05-09T04:40:40.652Z,10.25
2024-05-09T04:45:42.926Z,10.29
2024-05-09T04:50:45.255Z,10.33
2024-05-09T04:55:47.298Z,10.38
2024-05-09T05:00:49.255Z,10.44
2024-05-09T05:05:51.654Z,10.48
2024-05-09T05:10:56.172Z,10.56
2024-05-09T05:15:58.687Z,10.65
2024-05-09T05:21:01.186Z,10.74
2024-05-09T05:26:03.211Z,10.85
2024-05-09T05:31:05.238Z,10.98
2024-05-09T05:36:07.810Z,11.09
2024-05-09T05:41:10.276Z,11.23
2024-05-09T05:46:12.180Z,11.36
2024-05-09T05:51:14.215Z,11.50
2024-05-09T05:56:16.424Z,12.23
2024-05-09T06:01:20.881Z,12.24
2024-05-09T06:06:22.917Z,12.21
2024-05-09T06:11:27.479Z,12.23
2024-05-09T06:16:29.405Z,12.28
2024-05-09T06:21:31.275Z,12.36
2024-05-09T06:26:33.592Z,12.48
2024-05-09T06:31:45.036Z,12.62
2024-05-09T06:36:47.722Z,12.75
2024-05-09T06:41:50.486Z,12.93
2024-05-09T06:46:58.185Z,13.06
2024-05-09T06:52:02.179Z,13.20
2024-05-09T06:57:08.029Z,13.33
2024-05-09T07:02:10.311Z,13.50
2024-05-09T07:07:14.953Z,13.66
2024-05-09T07:12:17.706Z,13.82
2024-05-09T07:17:20.544Z,13.87
2024-05-09T07:22:25.693Z,13.84
2024-05-09T07:27:32.610Z,13.82
2024-05-09T07:32:36.966Z,13.86
2024-05-09T07:37:41.051Z,14.08
2024-05-09T07:42:46.148Z,14.30
2024-05-09T07:49:13.244Z,14.49
2024-05-09T07:53:37.282Z,14.58
2024-05-09T07:58:35.195Z,14.61
2024-05-09T08:03:40.535Z,14.65
2024-05-09T08:08:43.159Z,14.62
2024-05-09T08:13:45.349Z,14.65
2024-05-09T08:18:47.764Z,14.59
2024-05-09T08:23:49.749Z,14.65
2024-05-09T08:28:56.809Z,14.93
2024-05-09T08:34:02.067Z,15.44
2024-05-09T08:39:04.338Z,15.95
2024-05-09T08:44:10.001Z,16.28
2024-05-09T08:49:12.462Z,16.25
2024-05-09T08:54:18.048Z,16.18
2024-05-09T08:59:27.973Z,16.09
2024-05-09T09:04:31.327Z,16.09
2024-05-09T09:09:35.727Z,16.21
2024-05-09T09:14:38.070Z,16.56
2024-05-09T09:19:46.334Z,16.95
2024-05-09T09:24:51.944Z,17.21
2024-05-09T09:29:56.909Z,17.35
2024-05-09T09:35:01.254Z,17.47
2024-05-09T09:40:04.642Z,17.60
2024-05-09T09:45:09.195Z,17.75
2024-05-09T09:50:20.357Z,17.93
2024-05-09T09:55:26.354Z,18.06
2024-05-09T10:00:33.251Z,18.11
2024-05-09T10:05:41.184Z,18.07
2024-05-09T10:10:51.236Z,17.89
2024-05-09T10:15:54.744Z,18.02
2024-05-09T10:20:56.811Z,18.29
2024-05-09T10:26:00.407Z,18.56
2024-05-09T10:31:09.632Z,18.77
2024-05-09T10:36:13.178Z,18.94
2024-05-09T10:41:40.583Z,19.10
2024-05-09T10:46:43.490Z,19.13
2024-05-09T10:51:48.755Z,19.01
2024-05-09T10:56:58.192Z,18.99
2024-05-09T11:02:08.635Z,19.10
2024-05-09T11:07:13.972Z,19.28
2024-05-09T11:12:16.023Z,19.30
2024-05-09T11:17:18.619Z,19.43
2024-05-09T11:22:25.362Z,19.54
2024-05-09T11:27:27.871Z,19.72
2024-05-09T11:32:30.682Z,20.06
2024-05-09T11:37:36.052Z,20.43
2024-05-09T11:42:47.737Z,20.50
2024-05-09T11:47:51.364Z,20.21
2024-05-09T11:52:58.413Z,20.42
2024-05-09T11:58:00.689Z,20.40
2024-05-09T12:03:06.321Z,20.96
2024-05-09T12:08:10.069Z,21.48
2024-05-09T12:13:12.061Z,21.80
2024-05-09T12:18:16.598Z,22.01
2024-05-09T12:23:21.732Z,22.31
2024-05-09T12:28:24.307Z,22.58
2024-05-09T12:33:27.422Z,23.08
2024-05-09T12:38:32.754Z,23.58
2024-05-09T12:43:35.628Z,23.84
2024-05-09T12:48:43.016Z,24.04
2024-05-09T12:53:45.665Z,24.65
2024-05-09T12:58:49.833Z,24.89
2024-05-09T13:03:54.874Z,25.02
2024-05-09T13:08:57.570Z,25.35
2024-05-09T13:13:59.781Z,25.76
2024-05-09T13:19:07.031Z,25.99
2024-05-09T13:24:11.542Z,25.52
2024-05-09T13:29:13.516Z,24.97
2024-05-09T13:34:16.043Z,25.21
2024-05-09T13:39:18.427Z,25.93
2024-05-09T13:44:20.714Z,26.80
2024-05-09T13:49:22.863Z,27.03
2024-05-09T13:54:28.219Z,26.35
2024-05-09T13:59:30.663Z,26.58
2024-05-09T14:04:35.251Z,27.90
2024-05-09T14:09:37.854Z,29.53
2024-05-09T14:14:42.720Z,30.45
2024-05-09T14:19:46.549Z,31.10
2024-05-09T14:24:49.399Z,30.92
2024-05-09T14:29:52.480Z,31.11
2024-05-09T14:34:54.718Z,31.48
2024-05-09T14:40:01.586Z,31.65
2024-05-09T14:45:06.451Z,31.72
2024-05-09T14:50:16.865Z,31.66
2024-05-09T14:55:45.947Z,31.78
2024-05-09T15:01:10.490Z,31.19
2024-05-09T15:06:35.029Z,30.42
2024-05-09T15:11:57.521Z,29.16
2024-05-09T15:17:22.206Z,28.25
2024-05-09T15:22:47.616Z,27.72
2024-05-09T15:27:52.168Z,27.27
2024-05-09T15:32:57.000Z,26.88
2024-05-09T15:38:03.598Z,27.02
2024-05-09T15:43:07.001Z,27.37
2024-05-09T15:48:10.409Z,27.85
2024-05-09T15:53:13.933Z,28.39
2024-05-09T15:58:16.385Z,28.33
2024-05-09T16:03:21.565Z,28.05
2024-05-09T16:08:24.162Z,27.69
2024-05-09T16:13:26.419Z,27.20
2024-05-09T16:18:29.261Z,26.64
2024-05-09T16:23:31.414Z,26.39
2024-05-09T16:28:33.972Z,26.23
2024-05-09T16:33:40.556Z,25.95
2024-05-09T16:38:45.612Z,25.32
2024-05-09T16:43:47.800Z,24.64
2024-05-09T16:48:52.885Z,24.04
2024-05-09T16:53:55.595Z,23.70
2024-05-09T16:58:57.619Z,23.30
2024-05-09T17:04:00.132Z,22.87
2024-05-09T17:09:08.619Z,22.55
2024-05-09T17:14:16.992Z,22.25
2024-05-09T17:19:19.441Z,21.97
2024-05-09T17:24:22.084Z,21.71
2024-05-09T17:29:28.545Z,21.35
2024-05-09T17:34:33.514Z,21.17
2024-05-09T17:39:35.757Z,20.98
2024-05-09T17:44:37.892Z,20.73
2024-05-09T17:49:40.321Z,20.54
2024-05-09T17:54:42.738Z,20.47
2024-05-09T17:59:44.918Z,20.38
2024-05-09T18:04:47.158Z,20.28
2024-05-09T18:09:49.338Z,20.15
2024-05-09T18:14:51.397Z,20.10
2024-05-09T18:19:53.907Z,19.99
2024-05-09T18:24:56.354Z,19.73
2024-05-09T18:29:58.838Z,19.46
2024-05-09T18:35:00.894Z,19.26
2024-05-09T18:40:03.376Z,19.06
2024-05-09T18:45:07.321Z,18.89
2024-05-09T18:50:17.560Z,18.68
2024-05-09T18:55:27.230Z,18.52
2024-05-09T19:00:37.542Z,18.32
2024-05-09T19:05:44.653Z,18.22
2024-05-09T19:10:52.936Z,18.05
2024-05-09T19:15:55.416Z,17.82
2024-05-09T19:20:59.890Z,17.68
2024-05-09T19:26:04.151Z,17.52
2024-05-09T19:31:06.109Z,17.30
2024-05-09T19:36:08.282Z,17.14
2024-05-09T19:41:10.205Z,17.09
2024-05-09T19:46:12.554Z,17.06
2024-05-09T19:51:19.454Z,16.99
2024-05-09T19:56:26.397Z,16.94
2024-05-09T20:01:32.815Z,16.83
2024-05-09T20:06:36.684Z,16.76
2024-05-09T20:11:41.178Z,16.68
2024-05-09T20:16:44.741Z,16.61
2024-05-09T20:21:46.694Z,16.42
2024-05-09T20:26:48.599Z,16.31
2024-05-09T20:31:50.456Z,16.28
2024-05-09T20:36:57.893Z,16.21
2024-05-09T20:42:02.192Z,16.15
2024-05-09T20:47:04.268Z,16.07
2024-05-09T20:52:06.384Z,16.00
2024-05-09T20:57:13.213Z,15.92
2024-05-09T21:02:15.686Z,15.83
2024-05-09T21:07:17.963Z,15.75
2024-05-09T21:12:19.862Z,15.67
2024-05-09T21:17:21.866Z,15.56
2024-05-09T21:22:23.815Z,15.41
2024-05-09T21:27:25.836Z,15.29
2024-05-09T21:32:30.433Z,15.09
2024-05-09T21:37:32.474Z,15.01
2024-05-09T21:42:36.894Z,14.83
2024-05-09T21:47:41.136Z,14.75
2024-05-09T21:52:43.072Z,14.58
2024-05-09T21:57:44.921Z,14.44
2024-05-09T22:02:50.138Z,14.32
2024-05-09T22:07:54.119Z,14.19
2024-05-09T22:12:59.233Z,14.09
2024-05-09T22:18:01.285Z,13.98
2024-05-09T22:23:04.581Z,13.89
2024-05-09T22:28:07.423Z,13.79
2024-05-09T22:33:11.999Z,13.69
2024-05-09T22:38:14.807Z,13.62
2024-05-09T22:43:19.257Z,13.50
2024-05-09T22:48:21.665Z,13.37
2024-05-09T22:53:26.453Z,13.28
2024-05-09T22:58:30.618Z,13.21
2024-05-09T23:03:35.607Z,13.11
2024-05-09T23:08:37.645Z,13.03
2024-05-09T23:13:41.747Z,12.91
2024-05-09T23:18:43.798Z,12.88
2024-05-09T23:23:47.963Z,12.79
2024-05-09T23:28:52.020Z,12.70
2024-05-09T23:33:57.013Z,12.60
2024-05-09T23:38:59.177Z,12.51
2024-05-09T23:44:01.001Z,12.42
2024-05-09T23:49:03.093Z,12.33
2024-05-09T23:54:08.616Z,12.27
2024-05-09T23:59:10.485Z,12.19
